Time;durP1;ratioP1;P1;durP2;ratioP2;P2;SDS_P1;SDS_P2;PMS_P1;PMS_P2;Temp;Humidity;BMP_temperature;BMP_pressure;BME280_temperature;BME280_humidity;BME280_pressure;Samples;Min_cycle;Max_cycle;Signal;HPM_P1;HPM_P2
2022/07/01 00:02:00;;;;;;;3.17;1.80;;;;;;;-145.69;100.00;71398.41;5052514;28;20203;-76
2022/07/01 00:04:27;;;;;;;1.85;1.60;;;;;;;-145.69;100.00;71418.31;5052879;28;20207;-76
2022/07/01 00:06:53;;;;;;;2.30;1.45;;;;;;;-145.69;100.00;71430.25;5052665;28;20241;-76
2022/07/01 00:09:20;;;;;;;7.80;1.23;;;;;;;-145.69;100.00;71446.16;5052678;28;20227;-76
2022/07/01 00:11:47;;;;;;;4.60;1.60;;;;;;;-145.69;100.00;71442.19;5052397;28;20199;-76
2022/07/01 00:14:13;;;;;;;5.70;1.80;;;;;;;-145.69;100.00;71440.19;5052583;28;20204;-76
2022/07/01 00:16:40;;;;;;;2.08;1.42;;;;;;;-145.69;100.00;71440.19;5052334;28;20561;-76
2022/07/01 00:19:07;;;;;;;1.85;1.40;;;;;;;-145.69;100.00;71442.19;5052601;28;20208;-77
2022/07/01 00:21:34;;;;;;;1.20;1.03;;;;;;;-145.69;100.00;71454.13;5052570;28;20206;-77
2022/07/01 00:24:01;;;;;;;2.60;1.05;;;;;;;-145.69;100.00;71458.09;5051980;28;20440;-76
2022/07/01 00:26:27;;;;;;;3.47;1.00;;;;;;;-145.69;100.00;71454.13;5056376;28;20203;-77
2022/07/01 00:28:54;;;;;;;1.50;1.10;;;;;;;-145.69;100.00;71456.13;5056176;28;20227;-77
2022/07/01 00:31:20;;;;;;;2.33;1.27;;;;;;;-145.69;100.00;71450.16;5056403;28;20207;-78
2022/07/01 00:33:47;;;;;;;1.08;0.98;;;;;;;-145.69;100.00;71442.19;5056415;28;20601;-78
2022/07/01 00:36:14;;;;;;;1.85;1.02;;;;;;;-145.69;100.00;71442.19;5056807;28;20210;-77
2022/07/01 00:38:41;;;;;;;6.15;1.73;;;;;;;-145.69;100.00;71434.22;5056247;28;20203;-78
2022/07/01 00:41:08;;;;;;;3.20;1.45;;;;;;;-145.69;100.00;71438.22;5056141;28;20203;-77
2022/07/01 00:43:36;;;;;;;3.95;1.73;;;;;;;-145.69;100.00;71440.19;5056016;28;20655;-77
2022/07/01 00:46:03;;;;;;;2.13;1.40;;;;;;;-145.69;100.00;71428.25;5056124;28;20207;-78
2022/07/01 00:48:29;;;;;;;1.30;1.20;;;;;;;-145.69;100.00;71426.28;5055524;28;20235;-78
2022/07/01 00:50:58;;;;;;;2.78;1.20;;;;;;;-145.69;100.00;71426.28;5055788;28;20195;-78
2022/07/01 00:53:26;;;;;;;3.15;1.45;;;;;;;-145.69;100.00;71422.28;5055869;28;20207;-78
2022/07/01 00:55:53;;;;;;;4.60;1.50;;;;;;;-145.69;100.00;71420.31;5055754;28;20199;-78
2022/07/01 00:58:19;;;;;;;3.20;1.48;;;;;;;-145.69;100.00;71416.31;5055582;28;20597;-78
2022/07/01 01:00:46;;;;;;;4.68;1.60;;;;;;;-145.69;100.00;71402.41;5055762;28;20199;-78
2022/07/01 01:03:12;;;;;;;2.20;1.38;;;;;;;-145.69;100.00;71388.47;5055801;28;20208;-79
2022/07/01 01:05:41;;;;;;;4.53;1.60;;;;;;;-145.69;100.00;71378.50;5055643;28;20199;-78
2022/07/01 01:08:09;;;;;;;3.72;1.65;;;;;;;-145.69;100.00;71366.56;5055498;28;20211;-78
2022/07/01 01:10:38;;;;;;;3.70;1.70;;;;;;;-145.69;100.00;71354.63;5055412;28;20204;-78
2022/07/01 01:13:05;;;;;;;3.22;1.58;;;;;;;-145.69;100.00;71364.59;5056874;28;20203;-79
2022/07/01 01:15:31;;;;;;;2.17;1.55;;;;;;;-145.69;100.00;71370.56;5056255;28;20192;-78
2022/07/01 01:17:58;;;;;;;1.38;1.23;;;;;;;-145.69;100.00;71370.56;5055295;28;20662;-78
2022/07/01 01:20:26;;;;;;;1.70;1.48;;;;;;;-145.69;100.00;71372.53;5055338;28;20238;-78
2022/07/01 01:22:54;;;;;;;1.67;1.30;;;;;;;-145.69;100.00;71378.50;5055319;28;20199;-78
2022/07/01 01:25:20;;;;;;;3.53;1.38;;;;;;;-145.69;100.00;71374.53;5055113;28;20211;-76
2022/07/01 01:27:47;;;;;;;2.22;1.50;;;;;;;-145.69;100.00;71366.56;5054376;28;20436;-78
2022/07/01 01:30:14;;;;;;;1.70;1.48;;;;;;;-145.69;100.00;71358.63;5055089;28;20728;-77
2022/07/01 01:32:41;;;;;;;6.38;1.48;;;;;;;-145.69;100.00;71360.59;5055210;28;20243;-78
2022/07/01 01:35:08;;;;;;;4.32;1.60;;;;;;;-145.69;100.00;71358.63;5055145;28;20196;-78
2022/07/01 01:37:35;;;;;;;1.88;1.50;;;;;;;-145.69;100.00;71370.56;5055141;28;20253;-78
2022/07/01 01:40:03;;;;;;;3.75;1.40;;;;;;;-145.69;100.00;71360.59;5054980;28;20609;-78
2022/07/01 01:42:30;;;;;;;3.60;1.45;;;;;;;-145.69;100.00;71350.66;5055088;28;20199;-78
2022/07/01 01:44:57;;;;;;;4.53;1.70;;;;;;;-145.69;100.00;71352.66;5073271;28;20687;-77
2022/07/01 01:47:23;;;;;;;2.60;1.50;;;;;;;-145.69;100.00;71360.59;5075040;28;20564;-77
2022/07/01 01:49:50;;;;;;;1.40;1.30;;;;;;;-145.69;100.00;71354.63;5074514;28;20249;-76
2022/07/01 01:52:16;;;;;;;2.00;1.42;;;;;;;-145.69;100.00;71360.59;5074660;28;20202;-77
2022/07/01 01:54:43;;;;;;;4.68;1.55;;;;;;;-145.69;100.00;71356.63;5074853;28;20224;-77
2022/07/01 01:57:11;;;;;;;2.08;1.40;;;;;;;-145.69;100.00;71358.63;5074808;28;20203;-77
2022/07/01 01:59:37;;;;;;;2.03;1.33;;;;;;;-145.69;100.00;71354.63;5074699;28;20207;-77
2022/07/01 02:02:04;;;;;;;1.60;1.30;;;;;;;-145.69;100.00;71346.69;5067996;28;20659;-77
2022/07/01 02:04:31;;;;;;;3.35;1.73;;;;;;;-145.69;100.00;71324.78;5053216;28;20440;-77
2022/07/01 02:06:57;;;;;;;3.78;1.58;;;;;;;-145.69;100.00;71324.78;5054436;28;20203;-77
2022/07/01 02:09:24;;;;;;;4.38;1.48;;;;;;;-145.69;100.00;71328.78;5054614;28;20238;-76
2022/07/01 02:11:52;;;;;;;3.70;1.60;;;;;;;-145.69;100.00;71340.72;5054274;28;20802;-77
2022/07/01 02:14:20;;;;;;;2.30;1.40;;;;;;;-145.69;100.00;71342.69;5054362;28;20261;-77
2022/07/01 02:16:46;;;;;;;2.70;1.50;;;;;;;-145.69;100.00;71362.59;5054182;28;20196;-77
2022/07/01 02:19:13;;;;;;;4.90;1.73;;;;;;;-145.69;100.00;71350.66;5054410;28;20199;-76
2022/07/01 02:21:39;;;;;;;2.77;1.60;;;;;;;-145.69;100.00;71348.66;5054085;28;20207;-76
2022/07/01 02:24:07;;;;;;;2.63;1.60;;;;;;;-145.69;100.00;71344.69;5054267;28;20222;-77
2022/07/01 02:26:34;;;;;;;8.65;1.88;;;;;;;-145.69;100.00;71348.66;5054300;28;20211;-77
2022/07/01 02:29:00;;;;;;;1.60;1.40;;;;;;;-145.69;100.00;71380.50;5053986;28;20223;-77
2022/07/01 02:31:28;;;;;;;2.17;1.20;;;;;;;-145.69;100.00;71392.44;5054010;28;20199;-77
2022/07/01 02:33:54;;;;;;;1.53;1.10;;;;;;;-145.69;100.00;71382.50;5053897;28;20684;-76
2022/07/01 02:36:21;;;;;;;3.63;1.20;;;;;;;-145.69;100.00;71398.41;5053789;28;20206;-77
2022/07/01 02:38:47;;;;;;;1.63;1.30;;;;;;;-145.69;100.00;71400.41;5054030;28;20202;-77
2022/07/01 02:41:14;;;;;;;1.98;1.10;;;;;;;-145.69;100.00;71428.25;5053945;28;20207;-77
2022/07/01 02:43:41;;;;;;;4.30;1.30;;;;;;;-145.69;100.00;71434.22;5053850;28;20203;-77
2022/07/01 02:46:07;;;;;;;3.83;1.50;;;;;;;-145.69;100.00;71446.16;5053840;28;20264;-77
2022/07/01 02:48:35;;;;;;;4.83;1.53;;;;;;;-145.69;100.00;71454.13;5052812;28;20231;-77
2022/07/01 02:51:02;;;;;;;2.10;1.60;;;;;;;-145.69;100.00;71470.06;5052938;28;20439;-76
2022/07/01 02:53:28;;;;;;;1.90;1.40;;;;;;;-145.69;100.00;71462.09;5053784;28;20219;-76
2022/07/01 02:55:55;;;;;;;1.63;1.30;;;;;;;-145.69;100.00;71458.09;5053566;28;20203;-77
2022/07/01 02:58:21;;;;;;;2.00;1.47;;;;;;;-145.69;100.00;71462.09;5053497;28;20199;-76
2022/07/01 03:00:48;;;;;;;2.97;1.30;;;;;;;-145.69;100.00;71470.06;5053423;28;20593;-77
2022/07/01 03:03:15;;;;;;;3.60;1.37;;;;;;;-145.69;100.00;71468.06;5053328;28;20199;-77
2022/07/01 03:05:43;;;;;;;5.60;1.27;;;;;;;-145.69;100.00;71476.03;5061877;28;20695;-78
2022/07/01 03:08:09;;;;;;;2.13;1.33;;;;;;;-145.69;100.00;71478.00;5073431;28;20205;-77
2022/07/01 03:10:36;;;;;;;2.53;1.40;;;;;;;-145.69;100.00;71470.06;5073097;28;20236;-77
2022/07/01 03:13:02;;;;;;;2.27;1.40;;;;;;;-145.69;100.00;71462.09;5073219;28;20198;-77
2022/07/01 03:15:29;;;;;;;3.42;1.60;;;;;;;-145.69;100.00;71478.00;5072965;28;20477;-77
2022/07/01 03:17:55;;;;;;;2.03;1.55;;;;;;;-145.69;100.00;71483.97;5073083;28;20238;-76
2022/07/01 03:20:22;;;;;;;1.80;1.30;;;;;;;-145.69;100.00;71478.00;5073277;28;20203;-76
2022/07/01 03:22:50;;;;;;;3.40;1.40;;;;;;;-145.69;100.00;71485.97;5073042;28;20205;-76
2022/07/01 03:25:17;;;;;;;2.77;1.67;;;;;;;-145.69;100.00;71489.94;5072183;28;20460;-76
2022/07/01 03:27:47;;;;;;;2.22;1.35;;;;;;;-145.69;100.00;71511.84;5073048;28;20604;-76
2022/07/01 03:30:14;;;;;;;1.75;1.35;;;;;;;-145.69;100.00;71515.81;5072817;28;20230;-76
2022/07/01 03:32:41;;;;;;;2.50;1.50;;;;;;;-145.69;100.00;71531.75;5073145;28;20199;-76
2022/07/01 03:37:50;;;;;;;1.70;1.13;;;;;;;-145.69;100.00;71551.63;5072612;28;20194;-76
2022/07/01 03:40:17;;;;;;;1.17;1.07;;;;;;;-145.69;100.00;71565.56;5072905;28;20565;-76
2022/07/01 03:42:43;;;;;;;1.40;1.27;;;;;;;-145.69;100.00;71563.56;5072813;28;20226;-77
2022/07/01 03:45:10;;;;;;;2.10;1.40;;;;;;;-145.69;100.00;71565.56;5073044;28;20218;-76
2022/07/01 03:47:37;;;;;;;2.00;1.33;;;;;;;-145.69;100.00;71569.53;5072795;28;20199;-77
2022/07/01 03:50:04;;;;;;;1.97;1.60;;;;;;;-145.69;100.00;71569.53;5072704;28;20231;-76
2022/07/01 03:52:30;;;;;;;2.57;1.53;;;;;;;-145.69;100.00;71571.53;5072866;28;20198;-76
2022/07/01 03:54:57;;;;;;;1.70;1.40;;;;;;;-145.69;100.00;71571.53;5073248;28;20209;-76
2022/07/01 03:57:24;;;;;;;4.00;1.80;;;;;;;-145.69;100.00;71569.53;5072153;28;20913;-76
2022/07/01 03:59:50;;;;;;;5.70;1.63;;;;;;;-145.69;100.00;71571.53;5074640;28;20205;-75
2022/07/01 04:02:17;;;;;;;1.83;1.30;;;;;;;-145.69;100.00;71573.53;5077103;28;20205;-76
2022/07/01 04:04:43;;;;;;;1.50;1.37;;;;;;;-145.69;100.00;71565.56;5076826;28;20202;-76
2022/07/01 04:07:12;;;;;;;2.33;1.50;;;;;;;-145.69;100.00;71567.56;5076771;28;20213;-75
2022/07/01 04:09:39;;;;;;;1.97;1.40;;;;;;;-145.69;100.00;71581.50;5076510;28;20692;-75
2022/07/01 04:12:12;;;;;;;2.43;1.47;;;;;;;-145.69;100.00;71577.50;5076494;28;20209;-75
2022/07/01 04:14:39;;;;;;;2.30;1.33;;;;;;;-145.69;100.00;71565.56;5076548;28;20688;-75
2022/07/01 04:17:05;;;;;;;1.93;1.60;;;;;;;-145.69;100.00;71563.56;5076678;28;20208;-76
2022/07/01 04:19:32;;;;;;;2.23;1.60;;;;;;;-145.69;100.00;71571.53;5076552;28;20221;-75
2022/07/01 04:24:43;;;;;;;2.60;1.43;;;;;;;-145.69;100.00;71565.56;5076576;28;20226;-75
2022/07/01 04:27:11;;;;;;;4.47;1.77;;;;;;;-145.69;100.00;71565.56;5076608;28;20199;-76
2022/07/01 04:29:37;;;;;;;1.93;1.40;;;;;;;-145.69;100.00;71573.53;5076370;28;20230;-76
2022/07/01 04:32:05;;;;;;;2.17;1.57;;;;;;;-145.69;100.00;71573.53;5076086;28;20214;-75
2022/07/01 04:34:31;;;;;;;3.60;1.60;;;;;;;-145.69;100.00;71569.53;5076205;28;20199;-75
2022/07/01 04:36:58;;;;;;;2.53;1.83;;;;;;;-145.69;100.00;71561.59;5075968;28;20203;-75
2022/07/01 04:39:25;;;;;;;4.70;1.90;;;;;;;-145.69;100.00;71551.63;5075965;28;20722;-76
2022/07/01 04:41:59;;;;;;;2.93;1.53;;;;;;;-145.69;100.00;71551.63;5076154;28;20203;-75
2022/07/01 04:44:27;;;;;;;2.53;1.70;;;;;;;-145.69;100.00;71553.63;5076090;28;20252;-75
2022/07/01 04:46:54;;;;;;;6.33;1.87;;;;;;;-145.69;100.00;71555.63;5075759;28;20543;-76
2022/07/01 04:49:20;;;;;;;5.10;1.87;;;;;;;-145.69;100.00;71573.53;5075551;28;20235;-75
2022/07/01 04:51:47;;;;;;;3.90;2.30;;;;;;;-145.69;100.00;71573.53;5076153;28;20198;-76
2022/07/01 04:54:13;;;;;;;4.77;2.50;;;;;;;-145.69;100.00;71575.50;5075973;28;20199;-76
2022/07/01 04:56:40;;;;;;;3.93;2.60;;;;;;;-145.69;100.00;71573.53;5075847;28;20202;-75
2022/07/01 04:59:06;;;;;;;4.17;2.60;;;;;;;-145.69;100.00;71571.53;5075742;28;20229;-76
2022/07/01 05:01:34;;;;;;;3.33;2.60;;;;;;;-145.69;100.00;71565.56;5074129;28;20210;-75
2022/07/01 05:04:04;;;;;;;3.43;2.50;;;;;;;-145.69;100.00;71563.56;5073280;28;20209;-75
2022/07/01 05:06:30;;;;;;;4.97;2.50;;;;;;;-145.69;100.00;71569.53;5075269;28;20715;-76
2022/07/01 05:08:57;;;;;;;4.53;2.70;;;;;;;-145.69;100.00;71563.56;5075698;28;20203;-76
2022/07/01 05:11:23;;;;;;;4.33;2.70;;;;;;;-145.69;100.00;71569.53;5074933;28;20227;-76
2022/07/01 05:13:50;;;;;;;3.40;2.43;;;;;;;-145.69;100.00;71583.47;5075456;28;20203;-76
2022/07/01 05:16:16;;;;;;;2.10;1.50;;;;;;;-145.69;100.00;71585.47;5075434;28;20222;-76
2022/07/01 05:24:13;;;;;;;3.60;1.03;;;;;;;-145.69;100.00;71587.47;5075282;28;20206;-75
2022/07/01 05:26:39;;;;;;;1.57;1.03;;;;;;;-145.69;100.00;71579.50;5075269;28;20201;-76
2022/07/01 05:29:06;;;;;;;1.50;1.10;;;;;;;-145.69;100.00;71569.53;5075068;28;20669;-76
2022/07/01 05:31:33;;;;;;;1.70;1.23;;;;;;;-145.69;100.00;71569.53;5075287;28;20226;-76
2022/07/01 05:34:00;;;;;;;1.13;0.93;;;;;;;-145.69;100.00;71573.53;5075245;28;20206;-76
2022/07/01 05:36:27;;;;;;;1.00;0.90;;;;;;;-145.69;100.00;71577.50;5075063;28;20199;-76
2022/07/01 05:38:53;;;;;;;1.97;1.13;;;;;;;-145.69;100.00;71573.53;5075205;28;20203;-76
2022/07/01 05:41:20;;;;;;;1.53;0.93;;;;;;;-145.69;100.00;71577.50;5074944;28;20717;-76
2022/07/01 05:43:48;;;;;;;2.00;1.30;;;;;;;-145.69;100.00;71579.50;5074798;28;20203;-76
2022/07/01 05:46:14;;;;;;;2.20;1.27;;;;;;;-145.69;100.00;71579.50;5074944;28;20195;-76
2022/07/01 05:48:41;;;;;;;0.80;0.80;;;;;;;-145.69;100.00;71613.31;5074687;28;20231;-76
2022/07/01 05:51:08;;;;;;;1.42;0.95;;;;;;;-145.69;100.00;71611.34;5074412;28;20460;-75
2022/07/01 05:53:35;;;;;;;2.63;1.03;;;;;;;-145.69;100.00;71603.38;5074755;28;20203;-76
2022/07/01 05:56:01;;;;;;;2.43;1.00;;;;;;;-145.69;100.00;71603.38;5074630;28;20202;-75
2022/07/01 05:58:28;;;;;;;1.03;0.70;;;;;;;-145.69;100.00;71603.38;5074786;28;20206;-75
2022/07/01 06:00:54;;;;;;;1.20;0.70;;;;;;;-145.69;100.00;71593.44;5074634;28;20206;-76
2022/07/01 06:03:21;;;;;;;1.63;0.83;;;;;;;-145.69;100.00;71581.50;5074492;28;20206;-76
2022/07/01 06:05:47;;;;;;;1.27;0.90;;;;;;;-145.69;100.00;71573.53;5074569;28;20222;-77
2022/07/01 06:08:15;;;;;;;2.53;1.00;;;;;;;-145.69;100.00;71577.50;5074455;28;20207;-76
2022/07/01 06:10:41;;;;;;;0.67;0.63;;;;;;;-145.69;100.00;71571.53;5074190;28;20241;-76
2022/07/01 06:13:08;;;;;;;1.57;0.80;;;;;;;-145.69;100.00;71569.53;5074580;28;20198;-76
2022/07/01 06:15:35;;;;;;;0.77;0.77;;;;;;;-145.69;100.00;71569.53;5074454;28;20248;-76
2022/07/01 06:18:01;;;;;;;1.27;0.90;;;;;;;-145.69;100.00;71569.53;5074426;28;20199;-76
2022/07/01 06:20:28;;;;;;;0.90;0.90;;;;;;;-145.69;100.00;71577.50;5074283;28;20198;-77
2022/07/01 06:22:55;;;;;;;1.63;0.90;;;;;;;-145.69;100.00;71589.44;5073237;28;20336;-76
2022/07/01 06:25:23;;;;;;;0.80;0.73;;;;;;;-145.69;100.00;71601.38;5074006;28;20298;-77
2022/07/01 06:27:49;;;;;;;1.77;0.88;;;;;;;-145.69;100.00;71613.31;5073039;28;20441;-76
2022/07/01 06:30:15;;;;;;;3.17;0.80;;;;;;;-145.69;100.00;71621.28;5074060;28;20233;-77
2022/07/01 06:32:42;;;;;;;2.30;1.10;;;;;;;-145.69;100.00;71641.19;5074082;28;20199;-76
2022/07/01 06:35:09;;;;;;;0.80;0.80;;;;;;;-145.69;100.00;71639.19;5073902;28;20198;-77
2022/07/01 06:37:36;;;;;;;4.93;1.50;;;;;;;-145.69;100.00;71649.16;5073758;28;20650;-75
2022/07/01 06:40:04;;;;;;;0.90;0.80;;;;;;;-145.69;100.00;71649.16;5073691;28;20205;-76
2022/07/01 06:42:32;;;;;;;1.33;0.83;;;;;;;-145.69;100.00;71661.09;5073635;28;20665;-77
2022/07/01 06:44:58;;;;;;;2.47;0.80;;;;;;;-145.69;100.00;71663.06;5073804;28;20206;-77
2022/07/01 06:47:25;;;;;;;1.07;0.70;;;;;;;-145.69;100.00;71669.03;5073768;28;20249;-77
2022/07/01 06:49:51;;;;;;;0.80;0.80;;;;;;;-145.69;100.00;71677.00;5073529;28;20724;-77
2022/07/01 06:52:18;;;;;;;1.00;0.70;;;;;;;-145.69;100.00;71679.00;5073634;28;20199;-76
2022/07/01 06:54:44;;;;;;;2.10;0.80;;;;;;;-145.69;100.00;71679.00;5066681;28;20203;-77
2022/07/01 06:57:11;;;;;;;1.33;0.83;;;;;;;-145.69;100.00;71680.97;5053736;28;20199;-76
2022/07/01 06:59:39;;;;;;;2.00;0.80;;;;;;;-145.69;100.00;71679.00;5053585;28;20203;-76
2022/07/01 07:02:07;;;;;;;1.67;0.90;;;;;;;-145.69;100.00;71675.00;5053475;28;20207;-76
2022/07/01 07:04:33;;;;;;;1.30;0.60;;;;;;;-145.69;100.00;71671.03;5052720;28;20454;-76
2022/07/01 07:07:00;;;;;;;0.70;0.40;;;;;;;-145.69;100.00;71645.16;5053313;28;20269;-76
2022/07/01 07:09:27;;;;;;;0.97;0.70;;;;;;;-145.69;100.00;71613.31;5053486;28;20203;-76
2022/07/01 07:11:53;;;;;;;0.87;0.70;;;;;;;-145.69;100.00;71581.50;5053053;28;20234;-76
2022/07/01 07:14:20;;;;;;;0.70;0.70;;;;;;;-145.69;100.00;71561.59;5053373;28;20201;-76
2022/07/01 07:16:47;;;;;;;0.80;0.73;;;;;;;-145.69;100.00;71543.69;5053197;28;20204;-76
2022/07/01 07:19:14;;;;;;;0.70;0.68;;;;;;;-145.69;100.00;71549.66;5053141;28;20203;-77
2022/07/01 07:21:40;;;;;;;1.95;0.65;;;;;;;-145.69;100.00;71549.66;5053019;28;20203;-77
2022/07/01 07:24:07;;;;;;;0.43;0.43;;;;;;;-145.69;100.00;71551.63;5053196;28;20200;-77
2022/07/01 07:26:34;;;;;;;0.85;0.60;;;;;;;-145.69;100.00;71599.41;5053170;28;20222;-76
2022/07/01 07:29:00;;;;;;;0.75;0.68;;;;;;;-145.69;100.00;71625.25;5052886;28;20199;-76
2022/07/01 07:31:27;;;;;;;1.33;0.90;;;;;;;-145.69;100.00;71635.22;5052882;28;20711;-77
2022/07/01 07:33:55;;;;;;;1.70;0.90;;;;;;;-145.69;100.00;71649.16;5052703;28;20204;-76
2022/07/01 07:36:22;;;;;;;1.37;1.00;;;;;;;-145.69;100.00;71647.16;5052916;28;20199;-77
2022/07/01 07:38:48;;;;;;;1.57;1.10;;;;;;;-145.69;100.00;71635.22;5052824;28;20203;-77
2022/07/01 07:41:15;;;;;;;3.45;1.00;;;;;;;-145.69;100.00;71621.28;5052346;28;20452;-76
2022/07/01 07:43:41;;;;;;;2.80;1.02;;;;;;;-145.69;100.00;71637.19;5052960;28;20210;-76
2022/07/01 07:46:08;;;;;;;2.10;0.90;;;;;;;-145.69;100.00;71639.19;5052910;28;20195;-77
2022/07/01 07:48:34;;;;;;;1.25;1.00;;;;;;;-145.69;100.00;71621.28;5052462;28;20242;-78
2022/07/01 07:51:02;;;;;;;2.07;1.20;;;;;;;-145.69;100.00;71629.25;5052909;28;20231;-77
2022/07/01 07:53:29;;;;;;;1.50;0.90;;;;;;;-145.69;100.00;71617.31;5052929;28;20210;-77
2022/07/01 07:55:55;;;;;;;2.00;1.13;;;;;;;-145.69;100.00;71601.38;5052840;28;20219;-78
2022/07/01 07:58:22;;;;;;;2.93;1.17;;;;;;;-145.69;100.00;71625.25;5052642;28;20574;-77
2022/07/01 08:00:48;;;;;;;1.40;1.10;;;;;;;-145.69;100.00;71635.22;5052721;28;20574;-77
2022/07/01 08:03:14;;;;;;;1.97;0.67;;;;;;;-145.69;100.00;71635.22;5052614;28;20200;-78
2022/07/01 08:05:41;;;;;;;1.17;0.80;;;;;;;-145.69;100.00;71649.16;5052803;28;20206;-77
2022/07/01 08:08:09;;;;;;;2.70;1.05;;;;;;;-145.69;100.00;71661.09;5052699;28;20196;-77
2022/07/01 08:10:35;;;;;;;1.40;1.00;;;;;;;-145.69;100.00;71653.13;5052675;28;20227;-77
2022/07/01 08:13:04;;;;;;;0.77;0.70;;;;;;;-145.69;100.00;71659.09;5053075;28;20203;-77
2022/07/01 08:15:30;;;;;;;1.43;1.17;;;;;;;-145.69;100.00;71643.19;5053098;28;20666;-78
2022/07/01 08:17:57;;;;;;;1.70;1.00;;;;;;;-145.69;100.00;71645.16;5053068;28;20203;-77
2022/07/01 08:20:24;;;;;;;1.25;1.00;;;;;;;-145.69;100.00;71629.25;5052432;28;20202;-77
2022/07/01 08:22:50;;;;;;;6.90;1.40;;;;;;;-145.69;100.00;71645.16;5052598;28;20557;-77
2022/07/01 08:25:18;;;;;;;1.70;1.00;;;;;;;-145.69;100.00;71641.19;5052431;28;20242;-78
2022/07/01 08:27:45;;;;;;;2.22;1.17;;;;;;;-145.69;100.00;71673.03;5052403;28;20239;-78
2022/07/01 08:30:14;;;;;;;1.75;1.15;;;;;;;-145.69;100.00;71677.00;5052394;28;20230;-77
2022/07/01 08:32:41;;;;;;;4.53;1.47;;;;;;;-145.69;100.00;71679.00;5052556;28;20238;-77
2022/07/01 08:35:08;;;;;;;3.40;1.40;;;;;;;-145.69;100.00;71684.97;5052575;28;20195;-77
2022/07/01 08:37:35;;;;;;;1.80;0.80;;;;;;;-145.69;100.00;71665.06;5052558;28;20203;-78
2022/07/01 08:40:01;;;;;;;1.27;0.80;;;;;;;-145.69;100.00;71680.97;5052430;28;20206;-78
2022/07/01 08:42:29;;;;;;;1.17;0.90;;;;;;;-145.69;100.00;71669.03;5052432;28;20206;-77
2022/07/01 08:44:55;;;;;;;1.25;1.00;;;;;;;-145.69;100.00;71692.94;5051505;28;20443;-76
2022/07/01 08:47:22;;;;;;;1.75;1.17;;;;;;;-145.69;100.00;71688.94;5056149;28;20200;-77
2022/07/01 08:49:48;;;;;;;1.57;1.03;;;;;;;-145.69;100.00;71667.06;5055932;28;20227;-77
2022/07/01 08:52:15;;;;;;;1.50;1.23;;;;;;;-145.69;100.00;71663.06;5056148;28;20227;-77
2022/07/01 08:54:42;;;;;;;1.03;0.90;;;;;;;-145.69;100.00;71696.91;5055867;28;20202;-76
2022/07/01 08:57:08;;;;;;;3.07;1.20;;;;;;;-145.69;100.00;71710.84;5055870;28;20559;-76
2022/07/01 08:59:36;;;;;;;2.43;1.30;;;;;;;-145.69;100.00;71728.75;5055763;28;20608;-76
2022/07/01 09:02:05;;;;;;;1.47;1.13;;;;;;;-145.69;100.00;71740.69;5058108;28;20196;-76
2022/07/01 09:04:34;;;;;;;1.50;1.10;;;;;;;-145.69;100.00;71744.66;5055796;28;20203;-75
2022/07/01 09:07:05;;;;;;;2.87;1.07;;;;;;;-145.69;100.00;71724.75;5055741;28;20206;-75
2022/07/01 09:09:35;;;;;;;3.00;1.50;;;;;;;-145.69;100.00;71724.75;5055659;28;20211;-76
2022/07/01 09:12:01;;;;;;;2.13;1.17;;;;;;;-145.69;100.00;71714.81;5055357;28;20594;-75
2022/07/01 09:14:30;;;;;;;3.13;1.17;;;;;;;-145.69;100.00;71714.81;5055701;28;20203;-75
2022/07/01 09:16:59;;;;;;;6.00;2.40;;;;;;;-145.69;100.00;71732.72;5055557;28;20600;-76
2022/07/01 09:19:27;;;;;;;2.10;1.30;;;;;;;-145.69;100.00;71728.75;5055511;28;20203;-76
2022/07/01 09:21:57;;;;;;;1.10;1.00;;;;;;;-145.69;100.00;71728.75;5055289;28;20204;-76
2022/07/01 09:24:27;;;;;;;5.97;1.20;;;;;;;-145.69;100.00;71698.91;5055349;28;20203;-76
2022/07/01 09:26:55;;;;;;;1.33;0.90;;;;;;;-145.69;100.00;71682.97;5055557;28;20834;-75
2022/07/01 09:29:26;;;;;;;1.15;0.90;;;;;;;-145.69;100.00;71700.88;5055213;28;20574;-75
2022/07/01 09:31:52;;;;;;;2.30;0.77;;;;;;;-145.69;100.00;71692.94;5055121;28;20594;-76
2022/07/01 09:34:22;;;;;;;1.98;0.98;;;;;;;-145.69;100.00;71677.00;5055031;28;20658;-76
2022/07/01 09:36:56;;;;;;;1.10;1.00;;;;;;;-145.69;100.00;71635.22;5055053;28;20196;-76
2022/07/01 09:39:23;;;;;;;1.38;0.90;;;;;;;-145.69;100.00;71621.28;5054965;28;20630;-75
2022/07/01 09:41:50;;;;;;;0.80;0.80;;;;;;;-145.69;100.00;71635.22;5055111;28;20233;-77
2022/07/01 09:44:17;;;;;;;1.02;0.73;;;;;;;-145.69;100.00;71677.00;5054961;28;20229;-76
2022/07/01 09:46:54;;;;;;;0.70;0.68;;;;;;;-145.69;100.00;71615.31;5054996;28;20204;-77
2022/07/01 09:49:22;;;;;;;1.95;1.00;;;;;;;-145.69;100.00;71559.59;5054692;28;20227;-78
2022/07/01 09:51:50;;;;;;;1.38;0.85;;;;;;;-145.69;100.00;71527.75;5054771;28;20234;-77
2022/07/01 09:54:17;;;;;;;2.50;0.80;;;;;;;-145.69;100.00;71493.94;5054975;28;20203;-77
2022/07/01 09:56:44;;;;;;;2.55;0.70;;;;;;;-145.69;100.00;71474.03;5054765;28;20210;-77
2022/07/01 09:59:11;;;;;;;1.00;0.70;;;;;;;-145.69;100.00;71476.03;5053605;28;20440;-78
2022/07/01 10:01:39;;;;;;;1.05;0.70;;;;;;;-145.69;100.00;71440.19;5054571;28;20210;-78
2022/07/01 10:04:08;;;;;;;0.90;0.70;;;;;;;-145.69;100.00;71464.09;5054575;28;20199;-78
2022/07/01 10:07:16;;;;;;;0.68;0.50;;;;;;;-145.69;100.00;71454.13;5053978;28;20444;-78
2022/07/01 10:10:04;;;;;;;2.15;0.65;;;;;;;-145.69;100.00;71478.00;5054519;28;20195;-78
2022/07/01 10:12:43;;;;;;;2.65;0.60;;;;;;;-145.69;100.00;71509.84;5054322;28;20231;-78
2022/07/01 10:15:12;;;;;;;1.27;0.90;;;;;;;-145.69;100.00;71561.59;5054639;28;20203;-78
2022/07/01 10:17:43;;;;;;;1.02;0.77;;;;;;;-145.69;100.00;71577.50;5054416;28;20200;-78
2022/07/01 10:20:12;;;;;;;1.10;0.60;;;;;;;-145.69;100.00;71565.56;5054316;28;20674;-78
2022/07/01 10:22:41;;;;;;;0.90;0.80;;;;;;;-145.69;100.00;71507.84;5054204;28;20210;-78
2022/07/01 10:25:30;;;;;;;1.95;0.73;;;;;;;-145.69;100.00;71464.09;5054035;28;20478;-78
2022/07/01 10:28:17;;;;;;;1.23;0.70;;;;;;;-145.69;100.00;71382.50;5054185;28;20206;-79
2022/07/01 10:30:53;;;;;;;1.08;0.60;;;;;;;-145.69;100.00;71306.88;5054207;28;20211;-79
2022/07/01 10:33:40;;;;;;;0.68;0.68;;;;;;;-145.69;100.00;71348.66;5053967;28;20231;-78
2022/07/01 10:36:19;;;;;;;1.00;0.52;;;;;;;-145.69;100.00;71406.38;5053923;28;20211;-79
2022/07/01 10:39:14;;;;;;;0.90;0.60;;;;;;;-145.69;100.00;71456.13;5053877;28;20658;-79
2022/07/01 10:41:42;;;;;;;1.38;0.60;;;;;;;-145.69;100.00;71521.78;5053753;28;20203;-79
2022/07/01 10:44:11;;;;;;;1.73;0.50;;;;;;;-145.69;100.00;71470.06;5053510;28;20522;-79
2022/07/01 10:46:43;;;;;;;0.70;0.60;;;;;;;-145.69;100.00;71442.19;5054001;28;20542;-79
2022/07/01 10:49:12;;;;;;;2.33;0.85;;;;;;;-145.69;100.00;71422.28;5053610;28;20239;-79
2022/07/01 10:51:49;;;;;;;1.27;0.70;;;;;;;-145.69;100.00;71352.66;5053626;28;20235;-80
2022/07/01 10:54:49;;;;;;;0.45;0.45;;;;;;;-145.69;100.00;71253.16;5053809;28;20199;-79
2022/07/01 10:57:23;;;;;;;0.70;0.60;;;;;;;-145.69;100.00;71386.47;5053702;28;20608;-80
2022/07/01 10:59:51;;;;;;;0.98;0.55;;;;;;;-145.69;100.00;71318.81;5056286;28;20207;-80
2022/07/01 11:02:19;;;;;;;1.30;0.60;;;;;;;-145.69;100.00;71247.19;5053315;28;20578;-79
2022/07/01 11:04:46;;;;;;;3.80;0.52;;;;;;;-145.69;98.81;71286.97;5053354;28;20211;-80
2022/07/01 11:07:13;;;;;;;0.73;0.50;;;;;;;-145.69;97.61;71195.47;5053516;28;20207;-81
2022/07/01 11:09:40;;;;;;;0.55;0.52;;;;;;;-145.69;100.00;71207.38;5052813;28;20203;-80
2022/07/01 11:12:09;;;;;;;0.38;0.38;;;;;;;-145.69;93.00;71167.59;5053236;28;20234;-80
2022/07/01 11:14:36;;;;;;;1.10;0.57;;;;;;;-145.69;90.24;71187.50;5053284;28;20199;-81
2022/07/01 11:17:04;;;;;;;0.50;0.40;;;;;;;-145.69;90.21;71099.94;5053047;28;20199;-80
2022/07/01 11:19:31;;;;;;;0.50;0.50;;;;;;;-145.69;86.36;71034.28;5053282;28;20203;-80
2022/07/01 11:21:58;;;;;;;0.87;0.57;;;;;;;-145.69;86.51;71147.69;5052431;28;20440;-80
2022/07/01 11:24:26;;;;;;;0.77;0.63;;;;;;;-145.69;89.86;71181.53;5053031;28;20203;-80